Etusivu
METAR-TAF:

METAR-TAF

Lentoasemat :

Porin lentoasema

Pori, Suomi

Leveyspiiri: 61-28N, Pituuspiiri: 021-48E, korkeus merenpinnasta: 13 m

Tämänhetkinen sää

Tämä raportti tehtiin 23 minuuttia sitten, kello 19.20 UTC
Tuuli 3 kn etelästä
Lämpötila 12°C
Kosteus 88%
Ilmanpaine 1003 hPa
Näkyvyys 10 km tai enemmän
ei pilviä alle 1500 m:ssä eikä cumulonimbus-pilviä

METAR: EFPO 071920Z AUTO 19003KT CAVOK 12/10 Q1003

Aika: 22:43 (19:43 UTC)

Sääennuste

Tämä raportti tehtiin 8 tuntia ja 15 minuuttia sitten, kello 11.28 UTC
Ennuste voimassa 07. päivästä klo 12 UTC - 07. päivään klo 15 UTC
Tuuli 12 kn lännestä/lounaasta
Näkyvyys 10 km tai enemmän
Hajonneita pilviä 2000 ft:n korkeudessa
Ajoittain
07. päivästä klo 12 UTC - 07. päivään klo 15 UTC
Hajonneita pilviä 1300 ft:n korkeudessa
Hajanaisia pilviä 3000 ft:n korkeudessa, Cumulonimbus.

TAF: EFPO 071128Z 0712/0715 25012KT 9999 BKN020 TEMPO 0712/0715 BKN013 SCT030CB

Säähavainnot ja -ennusteet yli 4000 lentoasemalta (METAR- ja TAF-raportit).

Käytössä olevat sääasemat on merkitty karttaan keltaisilla ja punaisilla pisteillä.

Aseta hiiri pisteen päälle nähdäksesi sääaseman nimen.

Klikkaa sitten nähdäksesi säähavainnot ja -ennusteet.

Kartan vaihtaminen: klikkaa mustalla rastilla varustettuja vihreitä pisteitä, niin voit zoomata sisään; viivalla varustettua vihreää pistettä, niin voit zoomata ulos tai vihreitä nuolia, niin pääset viereisille kartoille.


METAR-TAF: